WXForecasting.com
Harvey, MI - Weather Station Data
 
Daily Summary for April 21, 2014 Units:  English    Metric   Both
« Previous Day
Next Day »
Daily Weekly Monthly Yearly Custom
  Current: High: Low: Average:
Temperature: 58.6 °F 58.6 °F 33.3 °F 39.1 °F
Dew Point: 40.0 °F 42.0 °F 31.0 °F 34.6 °F
Humidity: 51% 91% 50% 85%
Wind Speed: 1.0mph 3.0mph 0.0mph 0.1mph
Wind Gust: 5.0mph 7.0mph - -
WindEast - - SE
Pressure: 29.80 in 29.95 in 29.80 in -
Precipitation: 0.00 in      
Historical Graphs
 
 
Tabular Data for April 21, 2014
Time Temp Dew Point Pressure Wind Wind Speed Wind Gust RH Rain Rate/Hour
00:12 37.9 °F 34.0 °F 29.95 in Calm     86% 0.00 in
00:27 37.4 °F 34.0 °F 29.94 in Calm     86% 0.00 in
00:42 37.0 °F 33.0 °F 29.94 in Calm     86% 0.00 in
00:57 36.4 °F 33.0 °F 29.94 in Calm   1.0 mph 87% 0.00 in
01:12 36.7 °F 34.0 °F 29.94 in Calm   1.0 mph 89% 0.00 in
01:27 37.4 °F 35.0 °F 29.94 in Calm     89% 0.00 in
01:42 37.7 °F 35.0 °F 29.93 in Calm   1.0 mph 89% 0.00 in
01:57 37.8 °F 35.0 °F 29.93 in Calm   1.0 mph 89% 0.00 in
02:12 37.8 °F 35.0 °F 29.93 in Calm     89% 0.00 in
02:27 37.5 °F 35.0 °F 29.93 in Calm   1.0 mph 89% 0.00 in
02:42 37.0 °F 34.0 °F 29.92 in Calm     88% 0.00 in
02:58 36.9 °F 34.0 °F 29.92 in Calm     89% 0.00 in
03:13 36.5 °F 34.0 °F 29.92 in Calm     89% 0.00 in
03:28 36.7 °F 34.0 °F 29.91 in Calm     89% 0.00 in
03:43 36.7 °F 34.0 °F 29.91 in Calm     89% 0.00 in
03:58 36.4 °F 34.0 °F 29.91 in Calm     89% 0.00 in
04:13 35.9 °F 33.0 °F 29.91 in Calm   1.0 mph 89% 0.00 in
04:43 35.5 °F 33.0 °F 29.91 in Calm     89% 0.00 in
04:58 35.2 °F 32.0 °F 29.91 in Calm     89% 0.00 in
05:13 35.0 °F 32.0 °F 29.91 in Calm     89% 0.00 in
05:28 34.6 °F 32.0 °F 29.90 in Calm     89% 0.00 in
05:43 34.3 °F 31.0 °F 29.90 in Calm     89% 0.00 in
05:58 34.0 °F 31.0 °F 29.89 in Calm     89% 0.00 in
06:13 33.9 °F 31.0 °F 29.89 in Calm     90% 0.00 in
06:28 33.6 °F 31.0 °F 29.89 in Calm     89% 0.00 in
06:43 33.6 °F 31.0 °F 29.89 in Calm     90% 0.00 in
06:58 33.3 °F 31.0 °F 29.89 in Calm     90% 0.00 in
07:13 33.3 °F 31.0 °F 29.88 in Calm     90% 0.00 in
07:28 33.4 °F 31.0 °F 29.88 in Calm     90% 0.00 in
07:43 33.6 °F 31.0 °F 29.87 in Calm     90% 0.00 in
07:58 34.2 °F 32.0 °F 29.87 in Calm     91% 0.00 in
08:13 34.8 °F 33.0 °F 29.86 in Calm     91% 0.00 in
08:28 35.7 °F 33.0 °F 29.86 in Calm     91% 0.00 in
08:43 36.9 °F 35.0 °F 29.86 in Calm     91% 0.00 in
08:58 38.2 °F 36.0 °F 29.86 in Calm     91% 0.00 in
09:13 39.8 °F 37.0 °F 29.86 in Calm     91% 0.00 in
09:28 42.1 °F 40.0 °F 29.85 in Calm     91% 0.00 in
09:44 44.8 °F 42.0 °F 29.84 in Calm     88% 0.00 in
09:59 46.9 °F 41.0 °F 29.83 in Calm     81% 0.00 in
10:14 49.5 °F 42.0 °F 29.83 in Calm     75% 0.00 in
10:29 54.2 °F 42.0 °F 29.82 in Calm   2.0 mph 64% 0.00 in
10:44 55.9 °F 40.0 °F 29.81 in SSE 3.0 mph 7.0 mph 56% 0.00 in
10:59 56.9 °F 39.0 °F 29.81 in SE 1.0 mph 6.0 mph 51% 0.00 in
11:14 57.1 °F 38.0 °F 29.80 in Calm   4.0 mph 50% 0.00 in
11:29 58.6 °F 40.0 °F 29.80 in East 1.0 mph 5.0 mph 51% 0.00 in
Compliments of Weather Underground

5 Visitors online right now
Max visitors today: 17 at 05:23 am EDT
This month: 28 at 04-16-2014 07:15 am EDT
This year: 28 at 04-16-2014 07:15 am EDT
All time: 104 at 01-04-2012 03:34 am EST
See Who is Online